createdAt,value
2023-03-30T00:01:05.983Z,100544.97
2023-03-30T00:03:33.370Z,100530.34
2023-03-30T00:06:05.236Z,100552.03
2023-03-30T00:08:33.425Z,100547.50
2023-03-30T00:11:02.064Z,100465.56
2023-03-30T00:13:29.357Z,100536.81
2023-03-30T00:15:56.221Z,100529.75
2023-03-30T00:18:22.792Z,100457.84
2023-03-30T00:20:50.721Z,100509.81
2023-03-30T00:23:20.596Z,100476.50
2023-03-30T00:25:47.160Z,100526.63
2023-03-30T00:28:14.047Z,100508.50
2023-03-30T00:30:40.527Z,100533.66
2023-03-30T00:33:07.242Z,100440.19
2023-03-30T00:35:33.952Z,100504.19
2023-03-30T00:38:04.255Z,100439.16
2023-03-30T00:40:31.860Z,100502.78
2023-03-30T00:43:06.551Z,100481.47
2023-03-30T00:45:34.886Z,100496.69
2023-03-30T00:48:07.049Z,100438.94
2023-03-30T00:50:44.900Z,100439.13
2023-03-30T00:53:19.120Z,100466.44
2023-03-30T00:55:48.578Z,100465.78
2023-03-30T00:58:17.926Z,100404.66
2023-03-30T01:00:47.262Z,100449.72
2023-03-30T01:03:24.889Z,100440.88
2023-03-30T01:05:53.129Z,100354.44
2023-03-30T01:08:20.510Z,100403.81
2023-03-30T01:10:47.149Z,100394.78
2023-03-30T01:13:15.118Z,100325.25
2023-03-30T01:16:01.564Z,100407.03
2023-03-30T01:18:48.011Z,100377.19
2023-03-30T01:21:15.950Z,100414.56
2023-03-30T01:24:22.283Z,100381.22
2023-03-30T01:26:57.898Z,100408.56
2023-03-30T01:29:24.648Z,100406.03
2023-03-30T01:32:27.574Z,100405.88
2023-03-30T01:35:12.627Z,100398.16
2023-03-30T01:37:48.651Z,100387.47
2023-03-30T01:40:27.572Z,100392.97
2023-03-30T01:43:09.238Z,100389.47
2023-03-30T01:45:43.344Z,100379.59
2023-03-30T01:48:45.324Z,100362.50
2023-03-30T01:51:19.666Z,100382.44
2023-03-30T01:54:17.898Z,100359.16
2023-03-30T01:56:50.863Z,100336.72
2023-03-30T01:59:23.851Z,100336.91
2023-03-30T02:01:54.117Z,100357.69
2023-03-30T02:04:22.842Z,100341.53
2023-03-30T02:06:59.628Z,100331.13
2023-03-30T02:09:29.152Z,100285.94
2023-03-30T02:11:56.937Z,100326.91
2023-03-30T02:14:28.701Z,100284.09
2023-03-30T02:17:04.720Z,100309.19
2023-03-30T02:19:31.801Z,100308.84
2023-03-30T02:21:59.043Z,100293.78
2023-03-30T02:24:28.950Z,100294.00
2023-03-30T02:26:55.849Z,100204.06
2023-03-30T02:29:23.097Z,100292.78
2023-03-30T02:31:53.420Z,100294.78
2023-03-30T02:34:43.452Z,100273.41
2023-03-30T02:37:20.972Z,100280.75
2023-03-30T02:39:59.286Z,100262.03
2023-03-30T02:43:04.925Z,100210.47
2023-03-30T02:45:42.044Z,100279.75
2023-03-30T02:48:27.394Z,100271.72
2023-03-30T02:51:14.404Z,100255.66
2023-03-30T02:53:53.256Z,100226.38
2023-03-30T02:56:31.878Z,100256.00
2023-03-30T02:59:10.308Z,100196.25
2023-03-30T03:01:44.129Z,100223.03
2023-03-30T03:04:18.822Z,100245.47
2023-03-30T03:06:46.331Z,100228.59
2023-03-30T03:09:12.728Z,100205.31
2023-03-30T03:11:39.293Z,100216.91
2023-03-30T03:14:05.915Z,100199.19
2023-03-30T03:16:32.412Z,100160.22
2023-03-30T03:18:58.834Z,100147.19
2023-03-30T03:21:25.291Z,100198.69
2023-03-30T03:23:51.801Z,100101.91
2023-03-30T03:26:18.591Z,100107.75
2023-03-30T03:28:45.068Z,100157.22
2023-03-30T03:31:12.203Z,100117.56
2023-03-30T03:33:38.686Z,100176.59
2023-03-30T03:36:05.816Z,100126.44
2023-03-30T03:38:32.891Z,100103.00
2023-03-30T03:40:59.874Z,100166.34
2023-03-30T03:43:26.581Z,100112.53
2023-03-30T03:45:53.380Z,100182.38
2023-03-30T03:48:22.149Z,100180.88
2023-03-30T03:50:53.328Z,100144.31
2023-03-30T03:53:20.446Z,100120.06
2023-03-30T03:55:47.167Z,100097.50
2023-03-30T03:58:14.897Z,100126.41
2023-03-30T04:00:41.532Z,100097.19
2023-03-30T04:03:09.232Z,100110.06
2023-03-30T04:05:36.409Z,100139.66
2023-03-30T04:08:03.257Z,100074.63
2023-03-30T04:10:30.206Z,100128.63
2023-03-30T04:12:58.100Z,100089.19
2023-03-30T04:15:25.396Z,100128.31
2023-03-30T04:17:57.912Z,100065.84
2023-03-30T04:20:26.533Z,100098.75
2023-03-30T04:22:53.541Z,100100.25
2023-03-30T04:25:28.852Z,100071.88
2023-03-30T04:27:56.738Z,100103.75
2023-03-30T04:30:23.698Z,100049.50
2023-03-30T04:33:03.356Z,100091.91
2023-03-30T04:35:31.271Z,100105.81
2023-03-30T04:37:58.321Z,100095.41
2023-03-30T04:40:24.897Z,100072.84
2023-03-30T04:42:51.318Z,100086.94
2023-03-30T04:45:19.030Z,100083.59
2023-03-30T04:47:48.575Z,100056.19
2023-03-30T04:50:15.615Z,100045.97
2023-03-30T04:52:42.242Z,100067.19
2023-03-30T04:55:09.915Z,100066.38
2023-03-30T04:57:36.417Z,100053.31
2023-03-30T05:00:08.111Z,100067.84
2023-03-30T05:02:35.156Z,100068.00
2023-03-30T05:05:01.975Z,100017.09
2023-03-30T05:07:28.465Z,100050.50
2023-03-30T05:09:54.977Z,100064.69
2023-03-30T05:12:21.643Z,100054.84
2023-03-30T05:14:48.103Z,99997.38
2023-03-30T05:17:14.581Z,100051.84
2023-03-30T05:19:41.471Z,100054.19
2023-03-30T05:22:08.244Z,100048.50
2023-03-30T05:24:34.743Z,100016.44
2023-03-30T05:27:02.252Z,100073.56
2023-03-30T05:29:28.746Z,100025.13
2023-03-30T05:31:55.401Z,100051.69
2023-03-30T05:34:21.912Z,100024.28
2023-03-30T05:36:48.459Z,100013.78
2023-03-30T05:39:15.225Z,99969.56
2023-03-30T05:41:41.659Z,100040.88
2023-03-30T05:44:08.207Z,100044.53
2023-03-30T05:46:34.740Z,99989.41
2023-03-30T05:49:01.377Z,100057.03
2023-03-30T05:51:28.404Z,99973.38
2023-03-30T05:53:54.986Z,100071.03
2023-03-30T05:56:23.486Z,100054.00
2023-03-30T05:58:49.953Z,100047.47
2023-03-30T06:01:16.894Z,100018.78
2023-03-30T06:03:43.658Z,99985.22
2023-03-30T06:06:10.913Z,100032.59
2023-03-30T06:08:37.358Z,99993.16
2023-03-30T06:11:04.563Z,100034.19
2023-03-30T06:13:31.881Z,99983.78
2023-03-30T06:15:59.657Z,100031.34
2023-03-30T06:18:28.019Z,99991.78
2023-03-30T06:20:54.459Z,100025.63
2023-03-30T06:23:21.194Z,100021.63
2023-03-30T06:25:53.156Z,100022.09
2023-03-30T06:28:20.594Z,100012.78
2023-03-30T06:30:49.143Z,99987.38
2023-03-30T06:33:19.294Z,99998.06
2023-03-30T06:35:51.160Z,100029.19
2023-03-30T06:38:19.485Z,100021.50
2023-03-30T06:40:46.004Z,100009.19
2023-03-30T06:43:17.965Z,100034.19
2023-03-30T06:45:51.047Z,100034.28
2023-03-30T06:48:19.714Z,100021.91
2023-03-30T06:50:47.391Z,99990.53
2023-03-30T06:53:14.085Z,100025.50
2023-03-30T06:55:42.089Z,100035.69
2023-03-30T06:58:09.548Z,100044.03
2023-03-30T07:00:36.393Z,100011.25
2023-03-30T07:03:04.071Z,100031.28
2023-03-30T07:05:30.655Z,100024.38
2023-03-30T07:07:57.547Z,100005.53
2023-03-30T07:10:24.225Z,99999.63
2023-03-30T07:12:50.676Z,99972.06
2023-03-30T07:15:17.770Z,100019.44
2023-03-30T07:17:45.036Z,100023.59
2023-03-30T07:20:14.909Z,100027.75
2023-03-30T07:22:44.811Z,100010.06
2023-03-30T07:25:11.480Z,100026.03
2023-03-30T07:27:38.184Z,100024.53
2023-03-30T07:30:18.005Z,100022.69
2023-03-30T07:32:48.987Z,99991.50
2023-03-30T07:35:15.821Z,100016.63
2023-03-30T07:37:43.004Z,99980.78
2023-03-30T07:40:10.052Z,99997.25
2023-03-30T07:42:37.185Z,100002.19
2023-03-30T07:45:04.860Z,99993.16
2023-03-30T07:47:31.396Z,100012.13
2023-03-30T07:49:58.390Z,100013.88
2023-03-30T07:52:25.271Z,100007.41
2023-03-30T07:54:52.433Z,99964.38
2023-03-30T07:57:19.042Z,99989.19
2023-03-30T07:59:45.816Z,100001.59
2023-03-30T08:02:14.279Z,99975.03
2023-03-30T08:04:44.510Z,100034.81
2023-03-30T08:07:12.065Z,99950.00
2023-03-30T08:09:39.672Z,100035.00
2023-03-30T08:12:07.409Z,100035.56
2023-03-30T08:14:33.917Z,99987.38
2023-03-30T08:17:00.700Z,100036.34
2023-03-30T08:19:28.502Z,100014.41
2023-03-30T08:21:56.743Z,100017.00
2023-03-30T08:24:23.372Z,100025.13
2023-03-30T08:26:49.823Z,100017.34
2023-03-30T08:29:17.045Z,99993.75
2023-03-30T08:31:43.732Z,100014.28
2023-03-30T08:34:10.247Z,100025.91
2023-03-30T08:36:36.716Z,99985.75
2023-03-30T08:39:05.071Z,100041.94
2023-03-30T08:41:59.860Z,100028.22
2023-03-30T08:44:26.482Z,100023.03
2023-03-30T08:46:54.736Z,100014.78
2023-03-30T08:49:22.278Z,100019.50
2023-03-30T08:51:52.768Z,99994.78
2023-03-30T08:54:22.292Z,100013.16
2023-03-30T08:57:04.731Z,100008.31
2023-03-30T08:59:52.062Z,100008.53
2023-03-30T09:02:23.542Z,99988.41
2023-03-30T09:05:04.729Z,100021.16
2023-03-30T09:07:39.835Z,99950.75
2023-03-30T09:10:13.668Z,100015.34
2023-03-30T09:12:48.090Z,99976.84
2023-03-30T09:15:31.893Z,99996.34
2023-03-30T09:18:01.631Z,99991.28
2023-03-30T09:20:30.599Z,99972.91
2023-03-30T09:23:01.930Z,99894.50
2023-03-30T09:25:31.371Z,100004.78
2023-03-30T09:28:17.795Z,99946.09
2023-03-30T09:30:51.983Z,100012.28
2023-03-30T09:33:33.453Z,100011.47
2023-03-30T09:36:11.619Z,100005.06
2023-03-30T09:38:41.765Z,99947.78
2023-03-30T09:41:24.403Z,99952.53
2023-03-30T09:43:51.763Z,99997.13
2023-03-30T09:46:18.369Z,99965.34
2023-03-30T09:48:49.803Z,100013.75
2023-03-30T09:51:31.083Z,100003.34
2023-03-30T09:54:01.733Z,100008.53
2023-03-30T09:56:29.331Z,100009.16
2023-03-30T09:58:56.268Z,100013.31
2023-03-30T10:01:34.312Z,99946.69
2023-03-30T10:04:11.402Z,99987.16
2023-03-30T10:06:46.735Z,99943.41
2023-03-30T10:09:14.271Z,100012.50
2023-03-30T10:11:52.054Z,99985.72
2023-03-30T10:14:38.922Z,99953.13
2023-03-30T10:17:06.611Z,99979.44
2023-03-30T10:19:37.134Z,99935.50
2023-03-30T10:22:17.070Z,99911.25
2023-03-30T10:25:18.032Z,99998.06
2023-03-30T10:27:45.585Z,100002.19
2023-03-30T10:30:18.292Z,99996.38
2023-03-30T10:32:48.543Z,99988.88
2023-03-30T10:35:21.991Z,99972.72
2023-03-30T10:37:52.476Z,99968.78
2023-03-30T10:40:27.607Z,99927.72
2023-03-30T10:42:57.549Z,99988.47
2023-03-30T10:45:40.923Z,99953.41
2023-03-30T10:48:37.767Z,99992.59
2023-03-30T10:51:15.857Z,99981.59
2023-03-30T10:54:13.153Z,99984.94
2023-03-30T10:56:53.900Z,99956.53
2023-03-30T10:59:48.246Z,99983.53
2023-03-30T11:02:51.634Z,99986.66
2023-03-30T11:05:33.180Z,99971.13
2023-03-30T11:08:11.468Z,99986.44
2023-03-30T11:10:46.184Z,99986.41
2023-03-30T11:13:15.409Z,99983.25
2023-03-30T11:15:53.804Z,99959.75
2023-03-30T11:18:26.050Z,99964.63
2023-03-30T11:20:56.883Z,99981.41
2023-03-30T11:23:55.933Z,99981.84
2023-03-30T11:26:39.274Z,99990.66
2023-03-30T11:29:38.217Z,99980.84
2023-03-30T11:32:16.245Z,99976.41
2023-03-30T11:35:01.318Z,99994.25
2023-03-30T11:37:43.205Z,99967.63
2023-03-30T11:40:27.518Z,99992.06
2023-03-30T11:42:54.952Z,99978.53
2023-03-30T11:45:42.097Z,99916.72
2023-03-30T11:48:30.081Z,100016.44
2023-03-30T11:51:11.336Z,99993.81
2023-03-30T11:53:56.522Z,100004.00
2023-03-30T11:56:58.183Z,99995.06
2023-03-30T11:59:56.307Z,100007.09
2023-03-30T12:02:38.742Z,100019.81
2023-03-30T12:05:16.794Z,100065.81
2023-03-30T12:08:17.400Z,100053.81
2023-03-30T12:10:47.630Z,100055.41
2023-03-30T12:13:15.828Z,100059.50
2023-03-30T12:16:06.497Z,100038.19
2023-03-30T12:18:58.066Z,100030.44
2023-03-30T12:21:33.339Z,100043.63
2023-03-30T12:24:31.237Z,100062.06
2023-03-30T12:27:05.514Z,100009.78
2023-03-30T12:32:28.373Z,100070.47
2023-03-30T12:34:57.221Z,100054.94
2023-03-30T12:37:36.290Z,100078.72
2023-03-30T12:40:09.152Z,100040.38
2023-03-30T12:42:46.169Z,100002.44
2023-03-30T12:45:15.611Z,100058.34
2023-03-30T12:48:20.833Z,100038.31
2023-03-30T12:50:59.059Z,100056.88
2023-03-30T12:53:47.184Z,100067.19
2023-03-30T12:56:29.034Z,100070.28
2023-03-30T12:59:23.245Z,100062.94
2023-03-30T13:02:27.376Z,100061.03
2023-03-30T13:04:54.309Z,100082.41
2023-03-30T13:07:24.460Z,100035.31
2023-03-30T13:09:56.299Z,100071.47
2023-03-30T13:12:40.160Z,100062.16
2023-03-30T13:15:30.053Z,100087.63
2023-03-30T13:17:58.110Z,100067.34
2023-03-30T13:20:57.578Z,100052.38
2023-03-30T13:23:27.324Z,99997.88
2023-03-30T13:26:05.113Z,100078.28
2023-03-30T13:29:09.198Z,100074.34
2023-03-30T13:31:51.105Z,100076.47
2023-03-30T13:34:29.105Z,100095.31
2023-03-30T13:37:16.030Z,100084.41
2023-03-30T13:39:52.725Z,100069.75
2023-03-30T13:42:35.558Z,100034.66
2023-03-30T13:45:14.803Z,100053.34
2023-03-30T13:47:48.788Z,100077.09
2023-03-30T13:50:18.452Z,100077.47
2023-03-30T13:52:48.029Z,100063.38
2023-03-30T13:55:24.426Z,100089.13
2023-03-30T13:57:57.364Z,100024.53
2023-03-30T14:00:47.262Z,100091.81
2023-03-30T14:03:27.381Z,100086.66
2023-03-30T14:06:03.226Z,100058.41
2023-03-30T14:08:35.438Z,100035.09
2023-03-30T14:11:06.960Z,99988.63
2023-03-30T14:13:36.851Z,100030.94
2023-03-30T14:16:03.616Z,100019.72
2023-03-30T14:18:30.593Z,100039.66
2023-03-30T14:21:00.679Z,100086.56
2023-03-30T14:23:48.662Z,100097.78
2023-03-30T14:26:18.065Z,100063.28
2023-03-30T14:28:47.007Z,100092.34
2023-03-30T14:31:19.698Z,100086.75
2023-03-30T14:33:47.115Z,100081.75
2023-03-30T14:36:17.714Z,100065.97
2023-03-30T14:38:48.262Z,99977.75
2023-03-30T14:41:22.606Z,100052.69
2023-03-30T14:43:59.073Z,100076.81
2023-03-30T14:46:38.685Z,100001.59
2023-03-30T14:49:05.995Z,100049.22
2023-03-30T14:51:42.353Z,100066.84
2023-03-30T14:54:15.068Z,100047.19
2023-03-30T14:56:44.690Z,100066.69
2023-03-30T14:59:13.043Z,100033.91
2023-03-30T15:01:40.716Z,100051.13
2023-03-30T15:04:18.751Z,100054.81
2023-03-30T15:06:47.311Z,100062.06
2023-03-30T15:09:19.186Z,99990.09
2023-03-30T15:11:51.512Z,100073.88
2023-03-30T15:14:22.300Z,100089.50
2023-03-30T15:16:53.853Z,100039.47
2023-03-30T15:19:31.922Z,100049.84
2023-03-30T15:22:03.200Z,100018.16
2023-03-30T15:24:35.051Z,100006.94
2023-03-30T15:27:05.356Z,100114.88
2023-03-30T15:29:33.090Z,100095.25
2023-03-30T15:32:22.129Z,100102.38
2023-03-30T15:35:22.373Z,100100.56
2023-03-30T15:37:56.381Z,100106.50
2023-03-30T15:40:47.372Z,100091.69
2023-03-30T15:43:36.663Z,100075.16
2023-03-30T15:46:12.572Z,100105.81
2023-03-30T15:48:49.856Z,100050.22
2023-03-30T15:51:33.291Z,100091.66
2023-03-30T15:54:03.127Z,100029.47
2023-03-30T15:56:37.592Z,99992.00
2023-03-30T15:59:05.885Z,100033.34
2023-03-30T16:01:52.647Z,100056.75
2023-03-30T16:04:21.603Z,100092.44
2023-03-30T16:06:48.304Z,100040.44
2023-03-30T16:09:16.127Z,100040.06
2023-03-30T16:11:45.057Z,100003.97
2023-03-30T16:14:14.724Z,100100.81
2023-03-30T16:16:41.313Z,100069.19
2023-03-30T16:19:17.344Z,100055.88
2023-03-30T16:21:45.402Z,100076.97
2023-03-30T16:24:12.918Z,100088.53
2023-03-30T16:26:39.758Z,100096.03
2023-03-30T16:29:21.897Z,100000.00
2023-03-30T16:31:49.818Z,99975.06
2023-03-30T16:34:16.471Z,100037.19
2023-03-30T16:36:45.944Z,100001.31
2023-03-30T16:39:27.225Z,100081.69
2023-03-30T16:41:54.872Z,100078.28
2023-03-30T16:44:23.313Z,100079.78
2023-03-30T16:46:51.351Z,100063.50
2023-03-30T16:49:21.717Z,100089.69
2023-03-30T16:51:48.557Z,100099.81
2023-03-30T16:54:29.531Z,100012.06
2023-03-30T16:56:57.641Z,100078.16
2023-03-30T16:59:26.415Z,100028.00
2023-03-30T17:01:53.117Z,100089.63
2023-03-30T17:04:19.843Z,99992.63
2023-03-30T17:06:46.441Z,100033.00
2023-03-30T17:09:17.087Z,100065.47
2023-03-30T17:11:45.085Z,100089.25
2023-03-30T17:14:11.896Z,100040.50
2023-03-30T17:16:39.622Z,100073.34
2023-03-30T17:19:09.688Z,100092.78
2023-03-30T17:21:36.117Z,100083.16
2023-03-30T17:24:02.790Z,100107.22
2023-03-30T17:26:29.211Z,100044.66
2023-03-30T17:28:55.684Z,100065.00
2023-03-30T17:31:22.756Z,100096.50
2023-03-30T17:33:49.444Z,100105.38
2023-03-30T17:36:21.460Z,100060.38
2023-03-30T17:38:48.919Z,100052.06
2023-03-30T17:41:17.101Z,100105.75
2023-03-30T17:43:43.805Z,100049.78
2023-03-30T17:46:14.565Z,100093.53
2023-03-30T17:48:42.163Z,100015.75
2023-03-30T17:51:09.241Z,100099.09
2023-03-30T17:53:35.848Z,100090.38
2023-03-30T17:56:02.305Z,100108.81
2023-03-30T17:58:34.618Z,100089.84
2023-03-30T18:01:04.478Z,100107.03
2023-03-30T18:03:31.453Z,100041.03
2023-03-30T18:06:00.162Z,100113.81
2023-03-30T18:08:27.416Z,100111.50
2023-03-30T18:10:58.656Z,100111.03
2023-03-30T18:13:27.598Z,100111.03
2023-03-30T18:15:56.095Z,100126.50
2023-03-30T18:18:26.226Z,100039.25
2023-03-30T18:20:55.351Z,100140.31
2023-03-30T18:23:22.888Z,100143.44
2023-03-30T18:25:49.866Z,100143.75
2023-03-30T18:28:19.315Z,100144.38
2023-03-30T18:30:46.449Z,100146.00
2023-03-30T18:33:15.963Z,100144.97
2023-03-30T18:35:44.152Z,100126.84
2023-03-30T18:38:12.602Z,100145.00
2023-03-30T18:40:45.360Z,100142.53
2023-03-30T18:43:12.725Z,100145.44
2023-03-30T18:45:41.605Z,100147.31
2023-03-30T18:48:11.355Z,100148.22
2023-03-30T18:50:41.233Z,100111.34
2023-03-30T18:53:13.486Z,100149.63
2023-03-30T18:55:43.152Z,100145.81
2023-03-30T18:58:21.043Z,100149.66
2023-03-30T19:00:48.902Z,100135.13
2023-03-30T19:03:16.697Z,100138.81
2023-03-30T19:05:44.327Z,100117.13
2023-03-30T19:08:12.635Z,100132.63
2023-03-30T19:10:41.500Z,100120.47
2023-03-30T19:13:11.941Z,100136.66
2023-03-30T19:15:38.455Z,100124.84
2023-03-30T19:18:05.624Z,100149.41
2023-03-30T19:20:35.142Z,100152.94
2023-03-30T19:23:01.606Z,100158.28
2023-03-30T19:25:28.732Z,100134.25
2023-03-30T19:28:03.227Z,100144.06
2023-03-30T19:30:32.771Z,100104.16
2023-03-30T19:33:02.192Z,100156.44
2023-03-30T19:35:29.067Z,100132.19
2023-03-30T19:37:56.229Z,100146.72
2023-03-30T19:40:23.485Z,100109.00
2023-03-30T19:42:50.811Z,100147.91
2023-03-30T19:45:20.278Z,100133.53
2023-03-30T19:47:47.055Z,100114.50
2023-03-30T19:50:18.198Z,100099.84
2023-03-30T19:52:48.528Z,100125.22
2023-03-30T19:55:16.000Z,100120.84
2023-03-30T19:57:42.617Z,100091.66
2023-03-30T20:00:16.587Z,100100.81
2023-03-30T20:02:45.829Z,100129.34
2023-03-30T20:05:13.038Z,100126.84
2023-03-30T20:07:40.685Z,100124.53
2023-03-30T20:10:09.974Z,100100.16
2023-03-30T20:12:37.043Z,100096.16
2023-03-30T20:15:05.898Z,100124.88
2023-03-30T20:17:34.231Z,100093.00
2023-03-30T20:20:06.753Z,100119.03
2023-03-30T20:22:38.437Z,100118.53
2023-03-30T20:25:07.908Z,100122.88
2023-03-30T20:27:35.863Z,100123.72
2023-03-30T20:30:04.207Z,100120.38
2023-03-30T20:32:30.759Z,100111.72
2023-03-30T20:34:57.327Z,100105.88
2023-03-30T20:37:23.810Z,100115.19
2023-03-30T20:39:50.539Z,100107.38
2023-03-30T20:42:25.794Z,100093.00
2023-03-30T20:44:53.451Z,100068.50
2023-03-30T20:47:23.170Z,100134.44
2023-03-30T20:49:49.716Z,100128.91
2023-03-30T20:52:16.895Z,100088.31
2023-03-30T20:54:44.673Z,100121.59
2023-03-30T20:57:11.690Z,100129.56
2023-03-30T20:59:39.381Z,100121.22
2023-03-30T21:02:05.908Z,100103.69
2023-03-30T21:04:36.885Z,100040.78
2023-03-30T21:07:06.744Z,100143.44
2023-03-30T21:09:34.110Z,100091.00
2023-03-30T21:12:00.658Z,100089.84
2023-03-30T21:14:27.340Z,100073.16
2023-03-30T21:16:53.928Z,100141.44
2023-03-30T21:19:20.489Z,100062.28
2023-03-30T21:21:47.073Z,100137.56
2023-03-30T21:24:13.869Z,100135.53
2023-03-30T21:26:40.836Z,100130.38
2023-03-30T21:29:07.300Z,100102.81
2023-03-30T21:31:33.887Z,100128.53
2023-03-30T21:34:01.150Z,100124.00
2023-03-30T21:36:27.787Z,100088.44
2023-03-30T21:38:56.230Z,100030.22
2023-03-30T21:41:24.205Z,100086.97
2023-03-30T21:43:50.805Z,100076.94
2023-03-30T21:46:21.030Z,100110.78
2023-03-30T21:48:50.484Z,100112.59
2023-03-30T21:51:19.650Z,100104.13
2023-03-30T21:53:51.257Z,100065.72
2023-03-30T21:56:19.709Z,100107.97
2023-03-30T21:58:46.460Z,100055.19
2023-03-30T22:01:13.158Z,100058.13
2023-03-30T22:03:41.361Z,100076.09
2023-03-30T22:06:10.833Z,100084.63
2023-03-30T22:08:37.768Z,100073.41
2023-03-30T22:11:06.250Z,100092.13
2023-03-30T22:13:33.488Z,100058.25
2023-03-30T22:16:02.473Z,100071.25
2023-03-30T22:18:29.913Z,100089.97
2023-03-30T22:21:00.993Z,100060.38
2023-03-30T22:23:27.622Z,100032.84
2023-03-30T22:25:54.302Z,100008.50
2023-03-30T22:28:20.937Z,100025.72
2023-03-30T22:30:48.202Z,100025.16
2023-03-30T22:33:14.993Z,100067.00
2023-03-30T22:35:43.846Z,100072.03
2023-03-30T22:38:11.173Z,100012.44
2023-03-30T22:40:39.617Z,100038.63
2023-03-30T22:43:06.314Z,100054.28
2023-03-30T22:45:33.249Z,100016.94
2023-03-30T22:47:59.775Z,100058.97
2023-03-30T22:50:27.828Z,100048.66
2023-03-30T22:52:56.098Z,100072.00
2023-03-30T22:55:23.716Z,100081.34
2023-03-30T22:57:53.231Z,100025.31
2023-03-30T23:00:21.198Z,100046.97
2023-03-30T23:02:49.790Z,100075.81
2023-03-30T23:05:17.057Z,100074.81
2023-03-30T23:07:44.231Z,100017.09
2023-03-30T23:10:14.667Z,100040.13
2023-03-30T23:12:41.434Z,100059.38
2023-03-30T23:15:08.950Z,100024.72
2023-03-30T23:17:35.821Z,100042.25
2023-03-30T23:20:05.377Z,99995.06
2023-03-30T23:22:33.925Z,100006.25
2023-03-30T23:25:00.372Z,99968.03
2023-03-30T23:27:27.049Z,99988.69
2023-03-30T23:29:53.536Z,100028.53
2023-03-30T23:32:19.994Z,100053.28
2023-03-30T23:34:46.717Z,100042.75
2023-03-30T23:37:13.389Z,99981.91
2023-03-30T23:39:40.092Z,100047.56
2023-03-30T23:42:07.075Z,100051.88
2023-03-30T23:44:34.103Z,100049.03
2023-03-30T23:47:00.865Z,99992.53
2023-03-30T23:49:27.335Z,100055.41
2023-03-30T23:51:53.893Z,100040.22
2023-03-30T23:54:21.154Z,100051.88
2023-03-30T23:56:48.986Z,100050.88
2023-03-30T23:59:16.023Z,100015.16
